Time;durP1;ratioP1;P1;durP2;ratioP2;P2;SDS_P1;SDS_P2;PMS_P1;PMS_P2;Temp;Humidity;BMP_temperature;BMP_pressure;BME280_temperature;BME280_humidity;BME280_pressure;Samples;Min_cycle;Max_cycle;Signal;HPM_P1;HPM_P2
2023/10/18 00:01:27;;;;;;;6.20;5.25;;;11.60;61.40;13.30;101192.00;;;;5047072;28;20220;-76
2023/10/18 00:03:56;;;;;;;7.25;5.93;;;11.50;61.30;13.30;101176.00;;;;5043242;28;20208;-75
2023/10/18 00:06:23;;;;;;;7.93;5.88;;;11.50;61.40;13.30;101176.00;;;;5035369;28;20741;-75
2023/10/18 00:08:57;;;;;;;8.38;5.95;;;11.50;61.60;13.30;101185.00;;;;5033397;28;20195;-75
2023/10/18 00:11:26;;;;;;;7.25;5.32;;;11.50;61.60;13.30;101181.00;;;;5032810;28;20598;-75
2023/10/18 00:13:53;;;;;;;9.75;5.43;;;11.50;61.60;13.20;101184.00;;;;5035375;28;20270;-76
2023/10/18 00:16:22;;;;;;;7.05;5.30;;;11.50;61.60;13.20;101179.00;;;;5042657;28;20200;-76
2023/10/18 00:18:49;;;;;;;7.05;5.22;;;11.50;61.60;13.20;101183.00;;;;5030043;28;21017;-76
2023/10/18 00:21:18;;;;;;;7.25;5.72;;;11.50;61.60;13.20;101177.00;;;;5036688;28;20665;-75
2023/10/18 00:23:45;;;;;;;8.25;5.40;;;11.40;61.60;13.20;101186.00;;;;5044028;28;20211;-75
2023/10/18 00:26:12;;;;;;;7.57;6.45;;;11.50;61.80;13.20;101179.00;;;;5037639;28;20200;-75
2023/10/18 00:28:40;;;;;;;9.02;6.00;;;11.50;61.80;13.20;101181.00;;;;5035693;28;20203;-75
2023/10/18 00:31:16;;;;;;;8.63;5.57;;;11.50;61.80;13.20;101173.00;;;;5029475;28;20299;-76
2023/10/18 00:33:44;;;;;;;6.88;5.38;;;11.50;61.70;13.20;101173.00;;;;5028034;28;20246;-76
2023/10/18 00:36:11;;;;;;;7.25;6.03;;;11.50;61.70;13.20;101166.00;;;;5033692;28;20207;-76
2023/10/18 00:38:40;;;;;;;7.50;6.20;;;11.50;61.70;13.20;101172.00;;;;5047237;28;20199;-76
2023/10/18 00:41:14;;;;;;;7.50;6.13;;;11.50;61.70;13.20;101170.00;;;;5035605;28;20212;-75
2023/10/18 00:43:44;;;;;;;7.28;5.82;;;11.50;61.60;13.20;101169.00;;;;5043400;28;20208;-76
2023/10/18 00:46:13;;;;;;;7.90;6.50;;;11.50;61.60;13.20;101167.00;;;;5036488;28;20207;-77
2023/10/18 00:48:42;;;;;;;7.28;5.90;;;11.50;61.60;13.20;101160.00;;;;5031187;28;20218;-76
2023/10/18 00:51:11;;;;;;;7.88;6.07;;;11.50;61.60;13.20;101167.00;;;;5040364;28;20571;-76
2023/10/18 00:53:42;;;;;;;7.93;6.25;;;11.50;61.60;13.20;101168.00;;;;5044434;28;20199;-76
2023/10/18 00:56:11;;;;;;;7.82;6.03;;;11.50;61.60;13.20;101161.00;;;;5035815;28;20210;-76
2023/10/18 00:58:39;;;;;;;6.90;6.20;;;11.50;61.60;13.20;101159.00;;;;5036429;28;20191;-76
2023/10/18 01:01:09;;;;;;;6.15;4.90;;;11.50;61.60;13.20;101158.00;;;;5041204;28;20207;-76
2023/10/18 01:03:38;;;;;;;7.55;6.03;;;11.40;61.40;13.20;101148.00;;;;5039229;28;20230;-75
2023/10/18 01:06:09;;;;;;;8.10;5.72;;;11.40;61.40;13.10;101144.00;;;;5037175;28;20689;-76
2023/10/18 01:08:38;;;;;;;9.57;6.25;;;11.50;61.60;13.20;101142.00;;;;5039354;28;20204;-76
2023/10/18 01:11:10;;;;;;;6.78;5.63;;;11.50;61.60;13.20;101138.00;;;;5037360;28;20203;-75
2023/10/18 01:13:40;;;;;;;8.32;6.53;;;11.40;61.40;13.10;101134.00;;;;5041548;28;20187;-76
2023/10/18 01:16:14;;;;;;;8.38;6.20;;;11.40;61.40;13.10;101140.00;;;;5034383;28;20192;-76
2023/10/18 01:18:42;;;;;;;8.38;5.50;;;11.40;61.50;13.20;101136.00;;;;5040490;28;20612;-76
2023/10/18 01:21:14;;;;;;;7.40;6.13;;;11.40;61.50;13.10;101135.00;;;;5036865;28;20696;-76
2023/10/18 01:23:44;;;;;;;7.50;6.15;;;11.40;61.50;13.10;101128.00;;;;5044665;28;20230;-76
2023/10/18 01:26:14;;;;;;;7.63;6.05;;;11.40;61.50;13.10;101126.00;;;;5032352;28;20573;-76
2023/10/18 01:28:41;;;;;;;8.63;5.78;;;11.40;61.50;13.10;101133.00;;;;5039888;28;20661;-76
2023/10/18 01:31:09;;;;;;;6.78;5.72;;;11.40;61.60;13.10;101120.00;;;;5035933;28;20202;-76
2023/10/18 01:33:39;;;;;;;7.72;5.80;;;11.40;61.50;13.10;101128.00;;;;5041903;28;20241;-77
2023/10/18 01:36:11;;;;;;;7.45;6.13;;;11.40;61.50;13.10;101123.00;;;;5042872;28;20254;-75
2023/10/18 01:38:38;;;;;;;6.90;5.43;;;11.40;61.60;13.10;101117.00;;;;5040467;28;20281;-74
2023/10/18 01:41:09;;;;;;;7.47;6.13;;;11.40;61.50;13.10;101108.00;;;;5032533;28;20293;-75
2023/10/18 01:43:38;;;;;;;6.68;5.22;;;11.30;61.50;13.10;101119.00;;;;5030852;28;20220;-74
2023/10/18 01:46:08;;;;;;;8.73;5.63;;;11.30;61.60;13.10;101108.00;;;;5035526;28;20199;-74
2023/10/18 01:48:38;;;;;;;7.35;5.10;;;11.30;61.50;13.10;101109.00;;;;5033217;28;20196;-74
2023/10/18 01:51:06;;;;;;;6.50;5.38;;;11.30;61.50;13.10;101112.00;;;;5027771;28;20250;-74
2023/10/18 01:53:34;;;;;;;10.48;6.10;;;11.30;61.50;13.10;101101.00;;;;5034681;28;20297;-74
2023/10/18 01:56:02;;;;;;;7.95;6.13;;;11.30;61.60;13.00;101101.00;;;;5043050;28;20249;-75
2023/10/18 01:58:30;;;;;;;7.13;5.82;;;11.30;61.60;13.00;101095.00;;;;5032490;28;20259;-74
2023/10/18 02:01:01;;;;;;;7.28;6.32;;;11.30;61.50;13.00;101100.00;;;;5043960;28;20207;-74
2023/10/18 02:03:29;;;;;;;6.45;5.38;;;11.30;61.60;13.00;101094.00;;;;5043273;28;20219;-74
2023/10/18 02:05:57;;;;;;;7.72;6.32;;;11.30;61.60;13.00;101095.00;;;;5038037;28;20335;-74
2023/10/18 02:08:24;;;;;;;8.55;6.10;;;11.30;61.60;13.00;101104.00;;;;5043355;28;20200;-74
2023/10/18 02:10:51;;;;;;;7.78;5.75;;;11.20;61.50;13.00;101099.00;;;;5039126;28;20245;-74
2023/10/18 02:13:19;;;;;;;6.50;5.15;;;11.20;61.50;13.00;101096.00;;;;5046302;28;20227;-75
2023/10/18 02:15:48;;;;;;;7.55;5.80;;;11.20;61.50;13.00;101084.00;;;;5044152;28;20200;-75
2023/10/18 02:18:16;;;;;;;7.32;5.90;;;11.20;61.50;12.90;101076.00;;;;5043770;28;20246;-75
2023/10/18 02:20:52;;;;;;;7.88;5.82;;;11.20;61.50;13.00;101080.00;;;;5044901;28;20192;-74
2023/10/18 02:23:21;;;;;;;7.88;6.35;;;11.20;61.50;12.90;101080.00;;;;5044583;28;20738;-75
2023/10/18 02:25:49;;;;;;;8.48;6.57;;;11.20;61.50;12.90;101086.00;;;;5040351;28;20215;-75
2023/10/18 02:28:27;;;;;;;11.38;6.22;;;11.20;61.50;12.90;101074.00;;;;5040223;28;20203;-75
2023/10/18 02:30:56;;;;;;;8.23;5.35;;;11.10;61.40;12.90;101068.00;;;;5045937;28;20589;-75
2023/10/18 02:33:36;;;;;;;8.75;6.00;;;11.10;61.50;12.80;101073.00;;;;5047267;28;20195;-75
2023/10/18 02:36:06;;;;;;;7.07;5.90;;;11.10;61.50;12.90;101064.00;;;;5034036;28;20212;-75
2023/10/18 02:38:34;;;;;;;8.18;6.00;;;11.10;61.50;12.90;101059.00;;;;5035825;28;21043;-75
2023/10/18 02:41:04;;;;;;;8.52;6.53;;;11.10;61.50;12.90;101051.00;;;;5033295;28;20216;-74
2023/10/18 02:43:31;;;;;;;7.90;5.93;;;11.10;61.50;12.90;101039.00;;;;5039963;28;20223;-75
2023/10/18 02:45:58;;;;;;;7.32;5.80;;;11.10;61.50;12.80;101033.00;;;;5031267;28;20196;-75
2023/10/18 02:48:25;;;;;;;7.93;5.95;;;11.00;61.50;12.80;101025.00;;;;5036827;28;20196;-75
2023/10/18 02:50:57;;;;;;;8.90;6.70;;;11.00;61.50;12.80;101024.00;;;;5036982;28;20215;-75
2023/10/18 02:53:24;;;;;;;8.98;6.15;;;11.00;61.60;12.80;101024.00;;;;5036054;28;20211;-75
2023/10/18 02:55:56;;;;;;;8.30;6.45;;;11.00;61.60;12.80;101025.00;;;;5041572;28;20676;-75
2023/10/18 02:58:32;;;;;;;8.38;6.35;;;11.00;61.50;12.70;101006.00;;;;5048180;28;21020;-75
2023/10/18 03:01:05;;;;;;;8.30;6.13;;;11.00;61.60;12.70;101003.00;;;;5040252;28;20254;-75
2023/10/18 03:03:33;;;;;;;5.75;4.82;;;11.00;62.30;12.70;101013.00;;;;5041633;28;20219;-75
2023/10/18 03:06:06;;;;;;;8.25;5.65;;;11.00;61.60;12.70;101001.00;;;;5031525;28;20189;-75
2023/10/18 03:08:34;;;;;;;7.55;6.50;;;10.90;61.60;12.70;100994.00;;;;5045891;28;20651;-74
2023/10/18 03:11:03;;;;;;;7.38;5.65;;;10.90;61.50;12.70;101008.00;;;;5041953;28;20199;-74
2023/10/18 03:13:31;;;;;;;8.32;6.20;;;10.90;61.60;12.70;100996.00;;;;5044377;28;20204;-75
2023/10/18 03:16:06;;;;;;;8.25;6.13;;;10.90;61.70;12.60;100997.00;;;;5036815;28;20604;-75
2023/10/18 03:18:36;;;;;;;9.68;5.53;;;10.90;61.70;12.60;100998.00;;;;5034866;28;20255;-75
2023/10/18 03:21:06;;;;;;;9.98;6.40;;;10.90;61.60;12.60;101008.00;;;;5040840;28;20200;-75
2023/10/18 03:23:43;;;;;;;7.78;5.68;;;10.90;61.70;12.60;101004.00;;;;5041045;28;20227;-75
2023/10/18 03:26:11;;;;;;;8.35;5.97;;;10.90;61.70;12.60;101001.00;;;;5046493;28;20188;-75
2023/10/18 03:28:41;;;;;;;9.13;6.82;;;10.90;61.60;12.60;100998.00;;;;5037715;28;20580;-74
2023/10/18 03:31:27;;;;;;;7.30;5.75;;;10.90;61.70;12.50;100992.00;;;;5046050;28;20193;-75
2023/10/18 03:34:01;;;;;;;8.18;5.75;;;10.90;61.70;12.60;100986.00;;;;5041391;28;20234;-75
2023/10/18 03:36:32;;;;;;;8.88;5.97;;;10.90;61.70;12.60;100984.00;;;;5049311;28;20676;-75
2023/10/18 03:39:01;;;;;;;9.20;6.15;;;10.90;61.70;12.60;100977.00;;;;5048890;28;20207;-75
2023/10/18 03:41:33;;;;;;;10.55;6.82;;;10.80;61.80;12.60;100974.00;;;;5049638;28;20222;-75
2023/10/18 03:44:06;;;;;;;8.05;6.28;;;10.80;61.80;12.60;100976.00;;;;5049468;28;20219;-75
2023/10/18 03:46:46;;;;;;;9.02;6.35;;;10.80;61.60;12.60;100967.00;;;;5047760;28;20217;-75
2023/10/18 03:49:22;;;;;;;7.43;5.55;;;10.80;61.70;12.60;100967.00;;;;5035181;28;20588;-75
2023/10/18 03:51:54;;;;;;;9.82;5.72;;;10.80;61.70;12.50;100957.00;;;;5042120;28;20257;-75
2023/10/18 03:54:23;;;;;;;7.60;5.88;;;10.80;61.70;12.50;100958.00;;;;5036983;28;20203;-75
2023/10/18 03:56:53;;;;;;;7.38;5.93;;;10.80;61.80;12.50;100939.00;;;;5044716;28;20211;-75
2023/10/18 03:59:21;;;;;;;9.30;6.03;;;10.80;61.80;12.50;100941.00;;;;5048753;28;20199;-76
2023/10/18 04:02:06;;;;;;;7.32;5.13;;;10.80;61.80;12.50;100928.00;;;;5042384;28;20193;-76
2023/10/18 04:04:40;;;;;;;7.78;5.80;;;10.80;61.70;12.60;100941.00;;;;5048515;28;20281;-75
2023/10/18 04:07:16;;;;;;;8.60;6.05;;;10.90;61.80;12.60;100937.00;;;;5037955;28;20215;-75
2023/10/18 04:09:47;;;;;;;6.80;5.25;;;10.80;61.80;12.60;100931.00;;;;5042115;28;20966;-75
2023/10/18 04:12:19;;;;;;;10.02;5.57;;;10.90;61.80;12.60;100927.00;;;;5043593;28;20188;-76
2023/10/18 04:14:52;;;;;;;8.25;6.40;;;10.80;61.60;12.60;100926.00;;;;5034116;28;20199;-75
2023/10/18 04:17:32;;;;;;;7.35;5.32;;;10.90;62.30;12.60;100921.00;;;;5037225;28;20349;-75
2023/10/18 04:20:00;;;;;;;7.28;5.78;;;10.90;61.60;12.60;100905.00;;;;5035143;28;20200;-75
2023/10/18 04:22:29;;;;;;;8.52;5.72;;;10.90;61.60;12.60;100914.00;;;;5042751;28;20243;-75
2023/10/18 04:24:56;;;;;;;7.70;6.28;;;10.90;61.60;12.60;100915.00;;;;5043973;28;20192;-76
2023/10/18 04:27:24;;;;;;;7.88;5.95;;;10.90;61.60;12.60;100903.00;;;;5043952;28;20207;-75
2023/10/18 04:29:55;;;;;;;7.97;6.18;;;10.90;61.60;12.60;100905.00;;;;5031574;28;20200;-75
2023/10/18 04:32:23;;;;;;;6.72;5.32;;;10.90;61.60;12.60;100894.00;;;;5046417;28;20191;-75
2023/10/18 04:34:50;;;;;;;9.23;5.85;;;10.80;61.50;12.60;100892.00;;;;5038985;28;20211;-75
2023/10/18 04:37:22;;;;;;;9.13;6.20;;;10.90;61.60;12.60;100901.00;;;;5047888;28;20291;-75
2023/10/18 04:39:52;;;;;;;8.43;6.20;;;10.90;61.60;12.60;100884.00;;;;5041526;28;20695;-75
2023/10/18 04:42:19;;;;;;;7.63;5.97;;;10.90;61.60;12.60;100880.00;;;;5031537;28;20212;-75
2023/10/18 04:44:49;;;;;;;8.48;5.70;;;10.80;61.50;12.60;100882.00;;;;5032148;28;20227;-75
2023/10/18 04:47:18;;;;;;;6.63;5.00;;;10.90;61.50;12.60;100877.00;;;;5032265;28;20188;-75
2023/10/18 04:50:00;;;;;;;9.02;5.97;;;10.90;61.50;12.60;100876.00;;;;5041131;28;20245;-75
2023/10/18 04:52:28;;;;;;;7.95;5.90;;;10.90;61.60;12.60;100875.00;;;;5041098;28;20233;-75
2023/10/18 04:55:05;;;;;;;7.05;5.75;;;10.90;61.60;12.60;100868.00;;;;5044990;28;20200;-75
2023/10/18 04:57:38;;;;;;;7.75;6.25;;;10.90;61.50;12.60;100860.00;;;;5028188;28;20189;-75
2023/10/18 05:00:24;;;;;;;10.15;5.75;;;10.90;61.50;12.60;100859.00;;;;5040421;28;20204;-75
2023/10/18 05:02:52;;;;;;;7.05;5.38;;;10.90;61.50;12.60;100845.00;;;;5031598;28;20211;-75
2023/10/18 05:05:19;;;;;;;5.88;5.05;;;10.90;61.40;12.60;100839.00;;;;5042549;28;20549;-75
2023/10/18 05:07:47;;;;;;;8.90;6.05;;;10.90;61.40;12.70;100844.00;;;;5038482;28;20227;-75
2023/10/18 05:10:18;;;;;;;7.63;5.72;;;11.00;61.50;12.70;100844.00;;;;5047050;28;20671;-75
2023/10/18 05:12:52;;;;;;;7.88;5.93;;;10.90;61.40;12.70;100839.00;;;;5041285;28;20202;-77
2023/10/18 05:15:21;;;;;;;7.38;6.00;;;11.00;61.30;12.70;100836.00;;;;5042528;28;20219;-76
2023/10/18 05:17:51;;;;;;;9.52;5.88;;;11.00;61.30;12.60;100828.00;;;;5042453;28;20223;-76
2023/10/18 05:20:25;;;;;;;7.57;5.82;;;11.00;61.20;12.70;100820.00;;;;5043879;28;20713;-77
2023/10/18 05:22:59;;;;;;;7.93;5.72;;;11.00;61.30;12.70;100823.00;;;;5042676;28;20210;-76
2023/10/18 05:25:38;;;;;;;8.45;5.75;;;11.00;61.10;12.60;100826.00;;;;5042497;28;20215;-76
2023/10/18 05:28:15;;;;;;;7.70;5.55;;;11.00;61.20;12.70;100832.00;;;;5045126;28;20681;-76
2023/10/18 05:36:29;;;;;;;7.32;5.45;;;11.00;61.10;12.60;100815.00;;;;5048570;28;20198;-75
2023/10/18 05:39:05;;;;;;;9.77;5.90;;;11.00;61.10;12.60;100811.00;;;;5049026;28;20200;-75
2023/10/18 05:41:45;;;;;;;7.25;5.05;;;11.00;61.10;12.60;100822.00;;;;5047220;28;20440;-75
2023/10/18 05:44:13;;;;;;;9.30;5.57;;;11.00;61.10;12.60;100805.00;;;;5039039;28;20307;-76
2023/10/18 05:46:41;;;;;;;7.85;6.35;;;10.90;61.10;12.60;100810.00;;;;5048290;28;20199;-76
2023/10/18 05:49:15;;;;;;;7.72;5.88;;;10.90;61.00;12.60;100818.00;;;;5050448;28;20204;-75
2023/10/18 05:51:52;;;;;;;6.57;5.15;;;10.90;61.10;12.60;100808.00;;;;5045354;28;20215;-74
2023/10/18 05:54:21;;;;;;;6.68;5.25;;;10.90;61.10;12.60;100808.00;;;;5043160;28;20192;-74
2023/10/18 05:56:51;;;;;;;8.18;6.32;;;10.90;61.10;12.60;100804.00;;;;5044063;28;20660;-76
2023/10/18 05:59:33;;;;;;;6.75;5.20;;;10.90;61.10;12.60;100809.00;;;;5040092;28;20196;-75
2023/10/18 06:02:00;;;;;;;6.65;5.40;;;10.90;61.20;12.60;100808.00;;;;5047588;28;20241;-74
2023/10/18 06:04:33;;;;;;;6.55;5.13;;;10.90;61.20;12.60;100807.00;;;;5041325;28;20227;-74
2023/10/18 06:07:04;;;;;;;7.50;6.05;;;10.90;61.20;12.60;100797.00;;;;5044988;28;20665;-74
2023/10/18 06:09:43;;;;;;;7.60;5.68;;;10.90;61.20;12.60;100803.00;;;;5049417;28;20705;-75
2023/10/18 06:12:15;;;;;;;8.23;5.68;;;10.90;61.20;12.60;100801.00;;;;5048875;28;20196;-75
2023/10/18 06:14:44;;;;;;;8.88;6.07;;;10.90;61.20;12.70;100797.00;;;;5046048;28;20207;-75
2023/10/18 06:17:13;;;;;;;7.85;5.72;;;10.90;61.20;12.60;100799.00;;;;5044854;28;20219;-75
2023/10/18 06:19:45;;;;;;;7.97;5.97;;;10.90;61.20;12.60;100797.00;;;;5047779;28;20212;-75
2023/10/18 06:22:28;;;;;;;8.07;5.65;;;10.90;61.20;12.60;100787.00;;;;5044563;28;20298;-75
2023/10/18 06:24:57;;;;;;;8.48;6.00;;;10.80;61.00;12.60;100787.00;;;;5048038;28;20288;-75
2023/10/18 06:27:25;;;;;;;11.02;5.97;;;10.90;61.10;12.60;100783.00;;;;5049485;28;20196;-76
2023/10/18 06:29:54;;;;;;;8.43;6.03;;;10.80;61.10;12.60;100776.00;;;;5045936;28;20195;-75
2023/10/18 06:32:25;;;;;;;8.73;5.78;;;10.90;61.20;12.60;100767.00;;;;5049882;28;20191;-75
2023/10/18 06:34:57;;;;;;;7.15;5.65;;;10.90;61.20;12.60;100766.00;;;;5045680;28;20283;-75
2023/10/18 06:37:24;;;;;;;6.88;5.38;;;10.90;61.20;12.60;100768.00;;;;5050578;28;20206;-75
2023/10/18 06:39:54;;;;;;;8.38;6.32;;;10.80;61.10;12.60;100760.00;;;;5049566;28;20200;-75
2023/10/18 06:42:26;;;;;;;7.50;5.50;;;10.80;61.20;12.60;100758.00;;;;5044779;28;20219;-74
2023/10/18 06:44:55;;;;;;;6.72;5.32;;;10.80;61.10;12.60;100755.00;;;;5039936;28;20296;-75
2023/10/18 06:47:43;;;;;;;6.15;5.03;;;10.80;61.20;12.60;100748.00;;;;5048053;28;20198;-75
2023/10/18 06:50:11;;;;;;;5.57;4.57;;;10.80;61.20;12.60;100752.00;;;;5043438;28;20219;-75
2023/10/18 06:52:44;;;;;;;6.47;5.00;;;10.80;61.30;12.70;100744.00;;;;5047432;28;20680;-75
2023/10/18 06:55:15;;;;;;;6.68;4.97;;;10.80;61.20;12.70;100749.00;;;;5043557;28;20275;-75
2023/10/18 06:57:45;;;;;;;7.50;5.22;;;10.90;61.30;12.70;100741.00;;;;5045100;28;20200;-75
2023/10/18 07:00:15;;;;;;;7.05;5.05;;;10.90;61.30;12.70;100731.00;;;;5048334;28;20250;-75
2023/10/18 07:02:44;;;;;;;7.07;5.20;;;10.90;61.20;12.70;100737.00;;;;5046838;28;20203;-75
2023/10/18 07:05:11;;;;;;;6.43;5.10;;;10.90;61.30;12.70;100732.00;;;;5047434;28;20230;-75
2023/10/18 07:07:38;;;;;;;6.90;5.20;;;10.90;61.30;12.80;100725.00;;;;5045955;28;20241;-75
2023/10/18 07:10:19;;;;;;;6.63;5.10;;;11.00;61.20;12.70;100725.00;;;;5049387;28;20203;-75
2023/10/18 07:12:52;;;;;;;8.27;5.47;;;11.00;61.20;12.80;100724.00;;;;5047148;28;20199;-76
2023/10/18 07:15:22;;;;;;;7.00;5.18;;;11.00;61.10;12.80;100716.00;;;;5044493;28;20287;-75
2023/10/18 07:17:52;;;;;;;6.18;5.07;;;11.00;61.20;12.80;100713.00;;;;5047111;28;20231;-75
2023/10/18 07:20:25;;;;;;;6.10;4.97;;;11.10;61.20;12.90;100711.00;;;;5044550;28;20677;-75
2023/10/18 07:22:55;;;;;;;7.03;4.93;;;11.10;61.20;12.90;100710.00;;;;5047247;28;20196;-75
2023/10/18 07:25:27;;;;;;;7.03;4.97;;;11.10;61.20;12.90;100713.00;;;;5044008;28;20311;-74
2023/10/18 07:27:57;;;;;;;6.25;4.55;;;11.10;61.20;12.90;100705.00;;;;5047608;28;20962;-74
2023/10/18 07:30:37;;;;;;;7.65;4.70;;;11.20;61.30;13.00;100706.00;;;;5050014;28;20204;-74
2023/10/18 07:33:09;;;;;;;6.78;4.50;;;11.20;61.20;13.10;100705.00;;;;5038265;28;20624;-75
2023/10/18 07:35:39;;;;;;;6.53;4.97;;;11.30;61.30;13.10;100700.00;;;;5045101;28;20211;-76
2023/10/18 07:38:09;;;;;;;8.18;5.53;;;11.30;61.20;13.10;100691.00;;;;5049428;28;20199;-76
2023/10/18 07:40:41;;;;;;;8.50;4.97;;;11.30;61.00;13.20;100687.00;;;;5031753;28;20204;-75
2023/10/18 07:43:14;;;;;;;6.10;4.75;;;11.40;61.00;13.20;100687.00;;;;5044477;28;20657;-75
2023/10/18 07:45:45;;;;;;;5.97;4.95;;;11.40;61.30;13.20;100683.00;;;;5041330;28;20242;-76
2023/10/18 07:48:12;;;;;;;7.68;4.97;;;11.40;60.90;13.30;100673.00;;;;5045124;28;20254;-75
2023/10/18 07:50:49;;;;;;;9.10;4.63;;;11.50;60.80;13.30;100676.00;;;;5041653;28;20581;-75
2023/10/18 07:53:20;;;;;;;6.38;4.88;;;11.50;60.80;13.40;100677.00;;;;5031079;28;20215;-74
2023/10/18 07:55:53;;;;;;;5.93;4.38;;;11.60;61.00;13.40;100675.00;;;;5038365;28;20263;-76
2023/10/18 07:58:23;;;;;;;6.68;4.75;;;11.60;60.90;13.40;100681.00;;;;5039546;28;21103;-75
2023/10/18 08:01:12;;;;;;;7.57;4.82;;;11.70;61.00;13.50;100680.00;;;;5045823;28;20222;-75
2023/10/18 08:03:42;;;;;;;7.07;4.93;;;11.70;60.80;13.60;100673.00;;;;5047857;28;20192;-74
2023/10/18 08:06:16;;;;;;;5.85;4.53;;;11.80;60.80;13.60;100673.00;;;;5047778;28;20192;-75
2023/10/18 08:08:46;;;;;;;8.27;4.10;;;11.80;60.80;13.70;100680.00;;;;5048142;28;20611;-74
2023/10/18 08:11:14;;;;;;;5.18;3.90;;;11.80;60.80;13.80;100671.00;;;;5049244;28;20209;-75
2023/10/18 08:13:46;;;;;;;5.97;4.15;;;11.90;60.70;13.80;100659.00;;;;5046572;28;20570;-75
2023/10/18 08:16:19;;;;;;;5.35;4.18;;;12.00;60.50;13.80;100659.00;;;;5034374;28;20283;-74
2023/10/18 08:18:53;;;;;;;6.40;3.90;;;12.00;60.40;13.90;100655.00;;;;5029998;28;20224;-75
2023/10/18 08:21:37;;;;;;;4.85;4.05;;;12.10;60.40;13.90;100661.00;;;;5034167;28;20676;-74
2023/10/18 08:24:08;;;;;;;7.57;4.40;;;12.10;60.20;14.00;100659.00;;;;5045117;28;20259;-74
2023/10/18 08:26:46;;;;;;;4.95;3.83;;;12.20;60.20;14.10;100655.00;;;;5029040;28;20693;-75
2023/10/18 08:29:15;;;;;;;6.88;4.22;;;12.20;60.10;14.10;100655.00;;;;5033817;28;20218;-75
2023/10/18 08:31:48;;;;;;;6.22;4.18;;;12.30;60.10;14.20;100648.00;;;;5043264;28;20198;-75
2023/10/18 08:34:16;;;;;;;5.35;3.97;;;12.40;60.00;14.30;100648.00;;;;5042123;28;20192;-75
2023/10/18 08:36:44;;;;;;;7.07;3.75;;;12.40;59.90;14.30;100649.00;;;;5041168;28;20196;-75
2023/10/18 08:39:12;;;;;;;4.68;3.55;;;12.50;59.90;14.40;100649.00;;;;5041869;28;20187;-76
2023/10/18 08:41:54;;;;;;;6.03;3.92;;;12.60;60.00;14.40;100650.00;;;;5034590;28;20222;-77
2023/10/18 08:44:24;;;;;;;5.10;3.95;;;12.60;59.80;14.60;100644.00;;;;5041603;28;20226;-76
2023/10/18 08:47:03;;;;;;;4.68;3.80;;;12.70;59.90;14.60;100637.00;;;;5046596;28;20200;-75
2023/10/18 08:49:34;;;;;;;5.18;3.38;;;12.80;59.80;14.70;100639.00;;;;5045850;28;20211;-76
2023/10/18 08:52:08;;;;;;;4.47;3.08;;;12.90;59.70;14.80;100633.00;;;;5038890;28;20615;-76
2023/10/18 08:54:37;;;;;;;4.88;3.65;;;13.00;59.70;14.90;100632.00;;;;5030912;28;20286;-76
2023/10/18 08:57:08;;;;;;;4.75;3.88;;;13.10;59.60;15.00;100628.00;;;;5029851;28;20286;-76
2023/10/18 08:59:45;;;;;;;6.97;3.35;;;13.20;59.40;15.10;100624.00;;;;5032244;28;20393;-77
2023/10/18 09:02:17;;;;;;;5.18;3.53;;;13.30;59.40;15.20;100625.00;;;;5039929;28;20192;-77
2023/10/18 09:04:52;;;;;;;4.22;3.35;;;13.40;59.40;15.20;100612.00;;;;5028271;28;20224;-76
2023/10/18 09:07:21;;;;;;;4.10;3.33;;;13.50;59.80;15.40;100612.00;;;;5035077;28;20194;-76
2023/10/18 09:09:56;;;;;;;3.90;3.28;;;13.60;59.00;15.40;100603.00;;;;5044429;28;20584;-77
2023/10/18 09:15:35;;;;;;;4.57;2.85;;;13.80;58.90;15.70;100597.00;;;;5040790;28;20284;-77
2023/10/18 09:18:04;;;;;;;5.03;3.45;;;13.90;59.00;15.80;100593.00;;;;5036915;28;20227;-77
2023/10/18 09:20:37;;;;;;;5.97;3.30;;;14.00;58.80;15.90;100577.00;;;;5037095;28;20239;-76
2023/10/18 09:23:05;;;;;;;6.32;3.80;;;14.10;58.70;16.00;100586.00;;;;5038650;28;20700;-77
2023/10/18 09:25:47;;;;;;;5.25;2.65;;;14.20;58.50;16.00;100572.00;;;;5039677;28;20220;-78
2023/10/18 09:28:19;;;;;;;5.30;3.13;;;14.30;58.40;16.10;100570.00;;;;5036834;28;20653;-77
2023/10/18 09:30:48;;;;;;;4.15;3.40;;;14.40;58.20;16.20;100574.00;;;;5031351;28;20199;-77
2023/10/18 09:33:15;;;;;;;3.35;2.95;;;14.50;58.10;16.30;100582.00;;;;5027873;28;20215;-77
2023/10/18 09:35:47;;;;;;;4.50;3.08;;;14.50;58.00;16.40;100577.00;;;;5042294;28;20572;-77
2023/10/18 09:38:17;;;;;;;3.15;2.78;;;14.60;58.30;16.50;100563.00;;;;5033107;28;20224;-76
2023/10/18 09:40:47;;;;;;;4.10;3.08;;;14.70;57.90;16.60;100566.00;;;;5027675;28;20206;-76
2023/10/18 09:43:14;;;;;;;3.92;3.20;;;14.80;57.70;16.60;100561.00;;;;5027963;28;20287;-77
2023/10/18 09:45:42;;;;;;;6.32;3.28;;;14.90;57.40;16.70;100559.00;;;;5027721;28;20224;-78
2023/10/18 09:48:11;;;;;;;4.30;2.92;;;14.90;57.20;16.80;100551.00;;;;5043667;28;20200;-76
2023/10/18 09:50:41;;;;;;;5.88;3.40;;;15.00;57.10;16.80;100543.00;;;;5033989;28;20205;-75
2023/10/18 09:53:12;;;;;;;4.53;3.60;;;15.10;57.30;16.90;100544.00;;;;5031904;28;20203;-76
2023/10/18 09:55:42;;;;;;;6.28;3.60;;;15.20;57.40;17.00;100538.00;;;;5037175;28;20200;-76
2023/10/18 09:58:18;;;;;;;4.70;3.42;;;15.30;57.30;17.10;100529.00;;;;5036070;28;20282;-76
2023/10/18 10:00:50;;;;;;;4.15;3.17;;;15.40;57.10;17.20;100520.00;;;;5040161;28;20226;-76
2023/10/18 10:03:25;;;;;;;4.72;2.70;;;15.50;57.20;17.30;100517.00;;;;5027990;28;20208;-76
2023/10/18 10:05:53;;;;;;;4.40;3.50;;;15.60;57.10;17.40;100530.00;;;;5028062;28;20220;-77
2023/10/18 10:08:22;;;;;;;4.78;3.05;;;15.60;56.60;17.40;100514.00;;;;5036239;28;20200;-76
2023/10/18 10:10:51;;;;;;;4.32;3.28;;;15.70;56.60;17.50;100513.00;;;;5040490;28;20220;-76
2023/10/18 10:13:25;;;;;;;4.13;3.20;;;15.80;56.40;17.50;100512.00;;;;5027785;28;20224;-76
2023/10/18 10:15:58;;;;;;;4.03;3.20;;;15.80;56.10;17.50;100499.00;;;;5027718;28;20681;-76
2023/10/18 10:18:32;;;;;;;4.63;3.17;;;15.90;56.10;17.60;100498.00;;;;5028528;28;20282;-76
2023/10/18 10:21:05;;;;;;;3.80;3.30;;;15.90;55.90;17.60;100485.00;;;;5034548;28;20750;-75
2023/10/18 10:23:33;;;;;;;3.90;3.10;;;16.00;56.00;17.70;100492.00;;;;5041166;28;20206;-76
2023/10/18 10:26:10;;;;;;;5.32;3.50;;;16.00;55.80;17.70;100485.00;;;;5050503;28;20800;-76
2023/10/18 10:31:58;;;;;;;3.53;3.03;;;16.10;55.60;17.60;100479.00;;;;5048783;28;20272;-76
2023/10/18 10:34:32;;;;;;;5.03;3.80;;;16.10;55.30;17.80;100473.00;;;;5049427;28;20258;-76
2023/10/18 10:37:09;;;;;;;3.92;3.13;;;16.10;55.70;17.70;100460.00;;;;5040041;28;20231;-76
2023/10/18 10:39:45;;;;;;;5.63;3.88;;;16.20;55.30;17.80;100456.00;;;;5040868;28;20339;-75
2023/10/18 10:42:27;;;;;;;5.43;3.35;;;16.20;55.50;17.90;100456.00;;;;5035888;28;20273;-76
2023/10/18 10:45:09;;;;;;;4.43;3.80;;;16.20;55.50;17.90;100458.00;;;;5038688;28;20216;-76
2023/10/18 10:47:43;;;;;;;4.05;3.15;;;16.20;55.40;17.90;100445.00;;;;5043948;28;20257;-76
2023/10/18 10:50:45;;;;;;;4.57;3.05;;;16.30;55.50;17.90;100423.00;;;;5051314;28;20211;-76
2023/10/18 10:53:29;;;;;;;5.65;3.60;;;16.30;55.50;18.00;100417.00;;;;5050119;28;20727;-76
2023/10/18 10:55:56;;;;;;;4.70;3.20;;;16.40;55.40;18.00;100415.00;;;;5051613;28;20210;-76
2023/10/18 10:58:29;;;;;;;4.03;3.10;;;16.40;55.30;18.10;100412.00;;;;5040113;28;20200;-76
2023/10/18 11:01:04;;;;;;;5.53;3.47;;;16.40;55.20;18.00;100405.00;;;;5049164;28;20200;-77
2023/10/18 11:03:48;;;;;;;4.28;3.22;;;16.40;55.20;18.10;100395.00;;;;5046532;28;20301;-77
2023/10/18 11:06:22;;;;;;;5.15;2.85;;;16.50;55.40;18.10;100390.00;;;;5050890;28;20234;-76
2023/10/18 11:08:52;;;;;;;4.53;3.47;;;16.50;55.30;18.20;100380.00;;;;5050984;28;20203;-76
2023/10/18 11:11:21;;;;;;;4.43;3.13;;;16.60;55.30;18.30;100377.00;;;;5050569;28;20211;-76
2023/10/18 11:13:48;;;;;;;4.85;3.50;;;16.60;55.50;18.40;100376.00;;;;5049517;28;20214;-76
2023/10/18 11:16:17;;;;;;;5.97;3.72;;;16.70;55.60;18.40;100375.00;;;;5032092;28;20934;-76
2023/10/18 11:18:48;;;;;;;4.30;3.38;;;16.70;55.50;18.50;100367.00;;;;5031125;28;20234;-76